Historyczne dane pomiarowe

Dodano dane terminowe – wersja testowa.

Dane z okresu 1951-2019

Wersja bazy: 1.34 [2019-03-16, lista zmian], aktualizacja planowana na 2019-04-15

Dane meteo z obszaru Polski uzyskane na podstawie danych udostępnionych przez Instytut Meteorologii i Gospodarki Wodnej – Państwowy Instytut Badawczy.

 

Wybierz Datę:    

       

TemperaturaWilgotnośćZachmurzenieWiatrCiśnienieWidzialnośćZjawiska
 Data    tng td wb rh cc ccl cl cm ch dir g1 g2 mslp ppp      
1999-06-21 00:00:00 14.4--- 13.7 14.096wxwxwx2wx--1009.9 985.5 0.0---wx
1999-06-21 01:00:00 14.0--- 13.3 13.696wxwxwx1wx--1009.4 985.0----wx
1999-06-21 02:00:00 14.2--- 13.2 13.694wxwxwx1wx--1008.7 984.3----wx
1999-06-21 03:00:00 14.2--- 13.2 13.694wxwxwx1wx--1008.0 983.7----wx
1999-06-21 04:00:00 14.8--- 14.1 14.496wxwxwx2wx--1007.7 983.4----wx
1999-06-21 05:00:00 16.2--- 14.9 15.492wxwxwxwx2wx--1007.4 983.2----wx
1999-06-21 06:00:00 17.4--- 15.5 16.288wxwxwxwxwx2wx--1007.1 983.0 0.0---wx
1999-06-21 07:00:00 18.0--- 15.3 16.384wxwxwxwxwx3wx--1006.5 982.5----wx
1999-06-21 08:00:00 20.3--- 15.6 17.374wxwxwxwxwx3wx--1006.3 982.5----wx
1999-06-21 09:00:00 21.1--- 14.5 17.066wxwxwxwxwx3wx--1005.6 981.9----wx
1999-06-21 10:00:00 21.4--- 13.4 16.560wxwxwxwxwx2wx--1005.7 982.0----wx
1999-06-21 11:00:00 22.2--- 11.7 15.951wxwxwxwxwx4wx--1005.5 981.9----wx
1999-06-21 12:00:00 22.1--- 11.7 15.952wxwxwxwxwx4wx--1005.2 981.6 0.0---wx
1999-06-21 13:00:00 21.3--- 12.3 15.957wxwxwxwxwx6wx--1004.7 981.0----wx
1999-06-21 14:00:00 19.6--- 14.4 16.472wxwxwxwx6wx--1005.3 981.5----wx
1999-06-21 15:00:00 16.2--- 13.7 14.785wxwxwxwx10wx--1006.3 982.2----wx
1999-06-21 16:00:00 14.3--- 12.6 13.389wxwxwxwx7wx--1007.2 982.9----wxw1
1999-06-21 17:00:00 13.5--- 11.9 12.690wxwxwxwx7wx--1007.5 983.1----wxw1
1999-06-21 18:00:00 13.1--- 12.1 12.593wxwxwxwx6wx--1007.8 983.4 1.3---wxw1
1999-06-21 19:00:00 12.9--- 12.0 12.494wxwxwxwx6wx--1007.9 983.4----wxw1
1999-06-21 20:00:00 12.7--- 11.7 12.193wxwxwxwx7wx--1008.0 983.5----wxw1
1999-06-21 21:00:00 12.3--- 11.2 11.793wxwxwxwx7wx13-1008.2 983.7----wxw1
1999-06-21 22:00:00 11.5--- 10.8 11.195wxwxwxwx7wx--1008.0 983.4----wxw1
1999-06-21 23:00:00 11.4--- 10.5 10.994wxwxwxwx6wx--1008.1 983.5----wxw1

 

Źródłem pochodzenia danych jest Instytut Meteorologii i Gospodarki Wodnej – Państwowy Instytut Badawczy. Dane Instytutu Meteorologii i Gospodarki Wodnej – Państwowego Instytutu Badawczego zostały przetworzone.

Dane źródłowe można odnaleźć na stronie https://dane.imgw.pl